Time;durP1;ratioP1;P1;durP2;ratioP2;P2;SDS_P1;SDS_P2;PMS_P1;PMS_P2;Temp;Humidity;BMP_temperature;BMP_pressure;BME280_temperature;BME280_humidity;BME280_pressure;Samples;Min_cycle;Max_cycle;Signal;HPM_P1;HPM_P2
2022/09/20 00:12:07;;;;;;;9.40;4.30;;;;;;;11.08;100.00;99900.41;657493;1278;139833;-86
2022/09/20 00:27:10;;;;;;;4.80;3.80;;;;;;;11.04;100.00;99913.21;658322;1277;139080;-84
2022/09/20 00:42:14;;;;;;;5.70;4.00;;;;;;;10.97;100.00;99908.80;659737;1277;139191;-86
2022/09/20 00:57:17;;;;;;;8.00;4.10;;;;;;;10.95;100.00;99915.52;659547;1277;140039;-85
2022/09/20 01:12:25;;;;;;;13.70;5.30;;;;;;;10.95;100.00;99918.07;657895;1277;139122;-84
2022/09/20 01:27:41;;;;;;;6.80;4.20;;;;;;;10.93;100.00;99923.19;658641;1277;140000;-86
2022/09/20 01:42:58;;;;;;;8.70;5.00;;;;;;;10.89;100.00;99933.57;658607;1277;139655;-85
2022/09/20 01:58:19;;;;;;;12.70;5.30;;;;;;;10.73;100.00;99938.05;659028;1277;139248;-86
2022/09/20 02:13:36;;;;;;;7.10;4.50;;;;;;;10.54;100.00;99934.91;658595;1277;139097;-86
2022/09/20 02:29:00;;;;;;;7.90;4.30;;;;;;;10.31;100.00;99946.45;659302;1277;140041;-85
2022/09/20 02:44:21;;;;;;;14.70;6.40;;;;;;;10.31;100.00;99956.05;659552;1277;139484;-85
2022/09/20 02:59:48;;;;;;;10.80;6.00;;;;;;;10.32;100.00;99966.45;660528;1277;139509;-84
2022/09/20 03:15:07;;;;;;;10.80;7.10;;;;;;;10.33;100.00;99964.60;659496;1276;139346;-85
2022/09/20 03:30:40;;;;;;;11.70;6.20;;;;;;;10.28;100.00;99980.06;659653;1277;139083;-85
2022/09/20 03:45:56;;;;;;;10.80;6.30;;;;;;;10.23;100.00;99978.96;658990;1279;139281;-85
2022/09/20 04:01:08;;;;;;;9.40;4.70;;;;;;;10.31;100.00;99988.77;658514;1277;139515;-85
2022/09/20 04:16:28;;;;;;;10.00;5.90;;;;;;;10.47;100.00;100000.18;659081;1277;138887;-84
2022/09/20 04:31:52;;;;;;;7.60;5.00;;;;;;;10.46;100.00;100017.10;658699;1277;139937;-87
2022/09/20 04:47:37;;;;;;;11.80;5.50;;;;;;;10.50;100.00;100029.66;660702;1277;139372;-86
2022/09/20 05:03:14;;;;;;;10.80;6.20;;;;;;;10.45;100.00;100037.30;660862;1277;139027;-87
2022/09/20 05:18:49;;;;;;;11.50;6.70;;;;;;;10.23;100.00;100053.61;660060;1277;139360;-85
2022/09/20 05:34:14;;;;;;;12.50;6.60;;;;;;;10.30;100.00;100066.98;660889;1274;139175;-87
2022/09/20 05:49:39;;;;;;;11.50;5.80;;;;;;;10.67;100.00;100075.16;659245;1276;139896;-86
2022/09/20 06:04:51;;;;;;;8.90;5.50;;;;;;;11.10;100.00;100085.24;658733;1277;139288;-88
2022/09/20 06:20:17;;;;;;;6.90;4.20;;;;;;;11.24;100.00;100093.91;659128;1277;138890;-88
2022/09/20 06:35:25;;;;;;;10.60;4.90;;;;;;;11.53;100.00;100100.45;661230;1277;139250;-89
2022/09/20 06:50:29;;;;;;;11.30;6.10;;;;;;;11.81;100.00;100116.35;659407;1277;139315;-91
2022/09/20 07:05:33;;;;;;;8.00;4.80;;;;;;;12.05;100.00;100132.51;663073;1277;139451;-88
2022/09/20 07:20:36;;;;;;;7.90;4.30;;;;;;;13.23;100.00;100138.03;662812;1277;139370;-89
2022/09/20 07:35:40;;;;;;;6.50;4.00;;;;;;;15.10;100.00;100156.02;660288;1276;139386;-89
2022/09/20 07:50:50;;;;;;;5.80;3.70;;;;;;;15.81;100.00;100170.09;660937;1277;139158;-88
2022/09/20 08:06:06;;;;;;;5.20;2.30;;;;;;;16.50;100.00;100176.11;660100;1277;139690;-87
2022/09/20 08:21:10;;;;;;;3.90;2.00;;;;;;;17.40;100.00;100181.42;663188;1277;140027;-87
2022/09/20 08:36:16;;;;;;;3.80;1.80;;;;;;;17.89;100.00;100187.45;661369;1277;139608;-87
2022/09/20 08:51:22;;;;;;;6.90;2.10;;;;;;;18.36;99.21;100182.77;661838;1277;140198;-90
2022/09/20 09:06:25;;;;;;;4.20;2.10;;;;;;;19.18;95.82;100183.17;661202;1277;139836;-88
2022/09/20 09:21:30;;;;;;;3.30;1.80;;;;;;;18.81;94.29;100188.97;662098;1277;139694;-89
2022/09/20 09:36:43;;;;;;;3.10;1.40;;;;;;;19.30;87.82;100189.25;663319;1277;139936;-91
2022/09/20 09:52:14;;;;;;;1.10;0.70;;;;;;;19.75;77.31;100187.62;665620;1277;140057;-89
2022/09/20 10:07:36;;;;;;;1.00;0.90;;;;;;;18.73;74.90;100193.30;660842;1277;140231;-87
2022/09/20 10:23:12;;;;;;;1.70;1.00;;;;;;;19.34;75.23;100198.98;661802;1277;142119;-89
2022/09/20 10:39:13;;;;;;;0.80;0.50;;;;;;;19.20;75.04;100207.16;660898;1277;139947;-86
2022/09/20 10:54:20;;;;;;;3.10;0.90;;;;;;;18.99;72.89;100210.55;659656;1277;139789;-89
2022/09/20 11:09:28;;;;;;;0.70;0.70;;;;;;;19.85;71.66;100216.27;663316;1277;139842;-88
2022/09/20 11:38:13;;;;;;;0.90;0.80;;;;;;;19.29;69.74;100219.23;643561;1306;1152017;-90
2022/09/20 11:53:41;;;;;;;10.90;1.50;;;;;;;20.44;69.35;100226.88;655595;1287;138972;-93
2022/09/20 12:08:49;;;;;;;2.70;1.00;;;;;;;20.31;69.33;100241.12;658442;1286;138561;-89
2022/09/20 12:23:55;;;;;;;2.20;0.80;;;;;;;21.11;64.59;100255.54;656173;1287;139627;-90
2022/09/20 12:39:17;;;;;;;2.10;1.40;;;;;;;20.70;62.64;100262.52;656163;1287;138272;-93
2022/09/20 12:54:28;;;;;;;1.70;1.30;;;;;;;19.96;64.52;100269.97;656633;1287;138074;-90
2022/09/20 13:09:33;;;;;;;14.20;1.70;;;;;;;20.82;67.15;100283.08;655732;1287;137607;-93
2022/09/20 13:24:41;;;;;;;9.20;1.60;;;;;;;22.29;65.31;100286.63;656469;1287;138973;-86
2022/09/20 13:39:44;;;;;;;3.30;0.90;;;;;;;21.20;64.39;100284.85;655741;1286;140201;-93
2022/09/20 13:54:48;;;;;;;1.30;0.60;;;;;;;26.79;54.66;100281.70;658956;1280;138375;-92
2022/09/20 14:09:53;;;;;;;11.40;6.80;;;;;;;33.37;48.41;100281.84;663810;1280;138949;-92
2022/09/20 14:25:00;;;;;;;34.00;22.60;;;;;;;32.42;45.28;100287.43;661702;1280;138945;-94
2022/09/20 14:40:17;;;;;;;8.80;4.30;;;;;;;24.21;53.67;100293.17;660272;1280;138309;-93
2022/09/20 14:55:29;;;;;;;17.00;9.70;;;;;;;21.93;60.00;100307.00;662437;1280;138644;-92
2022/09/20 15:10:41;;;;;;;3.50;2.70;;;;;;;23.42;60.42;100310.68;663610;1280;139276;-91
2022/09/20 15:25:49;;;;;;;28.80;11.30;;;;;;;21.32;61.34;100323.16;660038;1279;138192;-92
2022/09/20 15:40:53;;;;;;;39.80;14.40;;;;;;;20.39;64.48;100336.89;659930;1280;138447;-90
2022/09/20 15:56:01;;;;;;;14.80;8.80;;;;;;;22.71;63.77;100352.30;660473;1280;139235;-86
2022/09/20 16:11:11;;;;;;;11.30;9.00;;;;;;;23.61;59.88;100361.84;665281;1274;139212;-96
2022/09/20 16:26:27;;;;;;;23.60;14.70;;;;;;;19.77;63.34;100369.92;664928;1274;138047;-93
2022/09/20 16:41:32;;;;;;;20.20;12.50;;;;;;;18.06;69.08;100393.94;663417;1274;138508;-93
2022/09/20 16:56:38;;;;;;;27.70;17.40;;;;;;;16.90;74.11;100423.70;676546;1267;137730;-95
2022/09/20 17:11:50;;;;;;;30.50;16.00;;;;;;;16.24;80.69;100434.73;668178;1278;138695;-94
2022/09/20 17:27:00;;;;;;;18.90;10.80;;;;;;;15.76;84.46;100448.30;667597;1276;139514;-91
2022/09/20 17:42:05;;;;;;;40.90;21.70;;;;;;;15.61;86.10;100458.91;667403;1277;139725;-95
2022/09/20 17:57:09;;;;;;;50.20;30.60;;;;;;;15.39;88.90;100463.38;664848;1277;140236;-95
2022/09/20 18:12:13;;;;;;;17.30;11.10;;;;;;;15.32;89.76;100481.86;666063;1277;140400;-93
2022/09/20 18:27:24;;;;;;;53.50;27.60;;;;;;;15.06;90.69;100494.59;670466;1277;140131;-94
2022/09/20 18:42:29;;;;;;;46.90;28.60;;;;;;;14.43;96.15;100501.20;671151;1277;139997;-92
2022/09/20 18:57:35;;;;;;;15.80;10.70;;;;;;;14.26;98.21;100505.37;677287;1267;138522;-93
2022/09/20 19:12:49;;;;;;;47.50;29.60;;;;;;;14.07;99.29;100514.64;675566;1277;138979;-94
2022/09/20 19:27:55;;;;;;;11.00;6.20;;;;;;;13.89;99.92;100527.27;669445;1276;140412;-93
2022/09/20 19:43:39;;;;;;;9.50;5.70;;;;;;;13.78;99.78;100549.05;666817;1277;138631;-93
2022/09/20 19:58:51;;;;;;;17.60;10.40;;;;;;;13.65;100.00;100562.10;672785;1277;138737;-93
2022/09/20 20:14:26;;;;;;;7.20;5.50;;;;;;;13.50;100.00;100566.86;674200;1276;139610;-93
2022/09/20 20:29:31;;;;;;;7.10;3.20;;;;;;;13.38;100.00;100580.30;675226;1268;138600;-92
2022/09/20 20:44:43;;;;;;;7.00;3.50;;;;;;;13.27;100.00;100588.53;673325;1280;139025;-94
2022/09/20 20:59:46;;;;;;;6.10;3.60;;;;;;;13.17;100.00;100592.08;671576;1280;138950;-93
2022/09/20 21:14:50;;;;;;;5.60;3.80;;;;;;;13.08;100.00;100598.90;666892;1280;138469;-95
2022/09/20 21:29:53;;;;;;;6.00;3.40;;;;;;;12.91;100.00;100609.92;666102;1280;140266;-92
2022/09/20 21:44:57;;;;;;;7.30;3.50;;;;;;;12.59;100.00;100623.26;668061;1280;138591;-94
2022/09/20 22:00:00;;;;;;;5.80;3.50;;;;;;;12.44;100.00;100620.69;668132;1280;140033;-91
2022/09/20 22:15:15;;;;;;;6.30;3.90;;;;;;;12.51;100.00;100629.90;669216;1280;140030;-93
2022/09/20 22:30:18;;;;;;;9.20;3.70;;;;;;;12.65;100.00;100637.10;667007;1279;138875;-96
2022/09/20 22:45:22;;;;;;;3.50;2.40;;;;;;;12.64;100.00;100641.20;675357;1279;139362;-91
2022/09/20 23:00:25;;;;;;;4.20;2.50;;;;;;;12.48;100.00;100641.44;672771;1280;137984;-94
2022/09/20 23:15:28;;;;;;;3.00;2.00;;;;;;;12.43;100.00;100640.98;676535;1279;139069;-92
2022/09/20 23:30:32;;;;;;;3.40;1.70;;;;;;;12.47;100.00;100650.05;676421;1268;138047;-94
2022/09/20 23:45:40;;;;;;;4.00;1.70;;;;;;;12.50;100.00;100655.98;677176;1268;1104502;31
